createdAt,value
2022-10-17T00:02:08.338Z,101572.44
2022-10-17T00:07:06.215Z,101574.19
2022-10-17T00:09:32.709Z,101570.16
2022-10-17T00:11:59.263Z,101564.81
2022-10-17T00:14:25.730Z,101563.03
2022-10-17T00:16:52.226Z,101571.84
2022-10-17T00:19:18.822Z,101564.69
2022-10-17T00:21:45.325Z,101560.66
2022-10-17T00:24:11.841Z,101558.25
2022-10-17T00:26:38.277Z,101561.50
2022-10-17T00:29:05.096Z,101551.28
2022-10-17T00:31:31.816Z,101550.03
2022-10-17T00:33:58.313Z,101546.75
2022-10-17T00:36:26.674Z,101544.84
2022-10-17T00:38:56.468Z,101545.25
2022-10-17T00:41:27.543Z,101558.84
2022-10-17T00:44:04.908Z,101558.41
2022-10-17T00:46:34.539Z,101543.31
2022-10-17T00:49:06.111Z,101549.69
2022-10-17T00:51:54.144Z,101548.09
2022-10-17T00:54:25.165Z,101537.78
2022-10-17T00:56:52.114Z,101539.78
2022-10-17T00:59:21.910Z,101540.22
2022-10-17T01:01:48.700Z,101549.38
2022-10-17T01:04:15.831Z,101543.03
2022-10-17T01:06:42.337Z,101538.66
2022-10-17T01:09:08.904Z,101539.91
2022-10-17T01:11:49.026Z,101546.69
2022-10-17T01:14:30.775Z,101549.50
2022-10-17T01:17:21.954Z,101545.56
2022-10-17T01:20:29.590Z,101529.69
2022-10-17T01:22:58.903Z,101537.66
2022-10-17T01:25:31.276Z,101546.88
2022-10-17T01:28:00.681Z,101538.88
2022-10-17T01:30:43.910Z,101550.47
2022-10-17T01:33:14.504Z,101548.47
2022-10-17T01:36:04.817Z,101538.56
2022-10-17T01:38:44.198Z,101536.16
2022-10-17T01:41:27.728Z,101540.91
2022-10-17T01:44:17.900Z,101532.16
2022-10-17T01:46:50.475Z,101548.53
2022-10-17T01:49:22.227Z,101533.81
2022-10-17T01:51:54.723Z,101526.19
2022-10-17T01:54:44.321Z,101534.13
2022-10-17T01:57:18.179Z,101545.34
2022-10-17T01:59:47.824Z,101530.59
2022-10-17T02:02:16.560Z,101535.78
2022-10-17T02:04:43.585Z,101524.22
2022-10-17T02:07:11.855Z,101515.84
2022-10-17T02:09:39.035Z,101514.25
2022-10-17T02:12:43.222Z,101523.03
2022-10-17T02:15:28.662Z,101523.03
2022-10-17T02:18:06.972Z,101524.25
2022-10-17T02:20:44.563Z,101515.81
2022-10-17T02:23:22.002Z,101520.66
2022-10-17T02:26:00.768Z,101527.03
2022-10-17T02:28:36.250Z,101515.88
2022-10-17T02:31:06.812Z,101523.84
2022-10-17T02:33:59.464Z,101524.63
2022-10-17T02:36:41.074Z,101525.44
2022-10-17T02:39:09.690Z,101521.44
2022-10-17T02:41:38.193Z,101517.47
2022-10-17T02:44:05.537Z,101515.09
2022-10-17T02:46:33.942Z,101516.31
2022-10-17T02:49:12.399Z,101518.69
2022-10-17T02:51:47.888Z,101509.16
2022-10-17T02:54:57.235Z,101519.88
2022-10-17T02:57:30.582Z,101520.69
2022-10-17T03:00:00.925Z,101510.31
2022-10-17T03:02:27.898Z,101505.56
2022-10-17T03:04:56.049Z,101517.50
2022-10-17T03:07:22.565Z,101507.16
2022-10-17T03:09:49.049Z,101522.69
2022-10-17T03:12:15.538Z,101523.09
2022-10-17T03:14:42.059Z,101529.03
2022-10-17T03:17:08.563Z,101537.41
2022-10-17T03:19:35.019Z,101529.06
2022-10-17T03:22:01.577Z,101526.66
2022-10-17T03:24:28.057Z,101517.94
2022-10-17T03:26:54.590Z,101515.09
2022-10-17T03:29:21.058Z,101509.53
2022-10-17T03:31:47.499Z,101511.94
2022-10-17T03:34:16.754Z,101517.50
2022-10-17T03:36:43.643Z,101519.13
2022-10-17T03:39:10.346Z,101530.66
2022-10-17T03:41:36.904Z,101528.66
2022-10-17T03:44:03.534Z,101542.22
2022-10-17T03:46:30.021Z,101543.41
2022-10-17T03:48:56.515Z,101542.19
2022-10-17T03:51:22.967Z,101558.16
2022-10-17T03:53:49.449Z,101552.97
2022-10-17T03:56:22.477Z,101541.41
2022-10-17T03:58:49.170Z,101534.25
2022-10-17T04:01:17.458Z,101548.56
2022-10-17T04:03:44.298Z,101552.16
2022-10-17T04:06:12.799Z,101567.31
2022-10-17T04:08:39.852Z,101557.75
2022-10-17T04:11:09.391Z,101560.50
2022-10-17T04:13:36.580Z,101569.28
2022-10-17T04:16:06.284Z,101573.28
2022-10-17T04:18:33.736Z,101584.44
2022-10-17T04:21:05.166Z,101593.22
2022-10-17T04:23:32.054Z,101594.03
2022-10-17T04:25:59.786Z,101600.41
2022-10-17T04:28:27.930Z,101595.22
2022-10-17T04:31:01.565Z,101599.59
2022-10-17T04:33:28.663Z,101595.69
2022-10-17T04:36:12.810Z,101596.47
2022-10-17T04:38:39.812Z,101578.13
2022-10-17T04:41:08.570Z,101565.38
2022-10-17T04:43:36.702Z,101571.75
2022-10-17T04:46:06.807Z,101574.13
2022-10-17T04:48:33.252Z,101574.53
2022-10-17T04:51:04.674Z,101573.34
2022-10-17T04:53:32.812Z,101576.50
2022-10-17T04:55:59.636Z,101571.75
2022-10-17T04:58:26.130Z,101582.13
2022-10-17T05:00:52.713Z,101596.47
2022-10-17T05:03:19.267Z,101594.88
2022-10-17T05:05:45.794Z,101601.25
2022-10-17T05:08:12.722Z,101598.88
2022-10-17T05:10:46.288Z,101602.44
2022-10-17T05:13:13.150Z,101610.41
2022-10-17T05:15:40.135Z,101606.44
2022-10-17T05:18:07.101Z,101594.88
2022-10-17T05:20:34.245Z,101595.69
2022-10-17T05:23:01.069Z,101600.06
2022-10-17T05:25:27.645Z,101612.81
2022-10-17T05:27:54.698Z,101602.03
2022-10-17T05:30:21.207Z,101614.00
2022-10-17T05:32:47.769Z,101600.47
2022-10-17T05:35:14.295Z,101605.59
2022-10-17T05:37:41.004Z,101606.81
2022-10-17T05:40:08.250Z,101609.22
2022-10-17T05:42:34.865Z,101596.44
2022-10-17T05:45:01.556Z,101592.81
2022-10-17T05:47:28.534Z,101584.88
2022-10-17T05:49:55.361Z,101605.25
2022-10-17T05:52:22.076Z,101618.72
2022-10-17T05:54:48.615Z,101609.19
2022-10-17T05:57:15.206Z,101616.41
2022-10-17T05:59:41.789Z,101623.13
2022-10-17T06:02:12.096Z,101632.28
2022-10-17T06:04:38.677Z,101642.66
2022-10-17T06:07:05.158Z,101639.13
2022-10-17T06:09:31.727Z,101645.06
2022-10-17T06:11:58.240Z,101644.31
2022-10-17T06:14:24.823Z,101646.25
2022-10-17T06:16:51.319Z,101651.47
2022-10-17T06:19:17.813Z,101652.69
2022-10-17T06:21:44.316Z,101658.25
2022-10-17T06:24:10.838Z,101652.69
2022-10-17T06:26:37.345Z,101641.94
2022-10-17T06:29:04.075Z,101645.09
2022-10-17T06:31:30.671Z,101645.50
2022-10-17T06:33:57.200Z,101641.53
2022-10-17T06:36:23.864Z,101650.31
2022-10-17T06:38:50.442Z,101647.91
2022-10-17T06:41:19.010Z,101631.56
2022-10-17T06:43:47.165Z,101647.50
2022-10-17T06:46:15.924Z,101647.50
2022-10-17T06:48:42.738Z,101646.72
2022-10-17T06:51:11.344Z,101655.50
2022-10-17T06:53:39.650Z,101677.00
2022-10-17T06:56:08.152Z,101694.19
2022-10-17T06:58:39.078Z,101697.75
2022-10-17T07:01:11.683Z,101700.97
2022-10-17T07:03:39.308Z,101721.69
2022-10-17T07:06:06.533Z,101719.31
2022-10-17T07:08:33.206Z,101735.63
2022-10-17T07:11:08.362Z,101744.38
2022-10-17T07:13:38.918Z,101791.44
2022-10-17T07:16:06.827Z,101820.50
2022-10-17T07:18:33.784Z,101837.25
2022-10-17T07:21:01.163Z,101857.50
2022-10-17T07:23:28.060Z,101890.25
2022-10-17T07:26:00.670Z,101873.50
2022-10-17T07:28:28.811Z,101879.13
2022-10-17T07:30:55.569Z,101890.72
2022-10-17T07:33:22.203Z,101867.59
2022-10-17T07:35:48.867Z,101877.19
2022-10-17T07:38:15.353Z,101873.63
2022-10-17T07:40:41.859Z,101852.50
2022-10-17T07:43:08.353Z,101850.06
2022-10-17T07:45:34.868Z,101828.53
2022-10-17T07:48:01.395Z,101841.72
2022-10-17T07:50:29.192Z,101854.00
2022-10-17T07:52:55.703Z,101892.34
2022-10-17T07:55:22.220Z,101909.88
2022-10-17T07:57:48.790Z,101904.25
2022-10-17T08:00:15.686Z,101926.19
2022-10-17T08:02:42.722Z,101930.97
2022-10-17T08:05:09.443Z,101948.88
2022-10-17T08:07:36.078Z,101942.50
2022-10-17T08:10:02.787Z,101967.28
2022-10-17T08:12:32.697Z,101956.94
2022-10-17T08:15:02.641Z,101956.13
2022-10-17T08:17:29.405Z,101947.78
2022-10-17T08:19:55.978Z,101921.50
2022-10-17T08:22:22.514Z,101898.75
2022-10-17T08:24:49.081Z,101882.44
2022-10-17T08:27:21.358Z,101876.84
2022-10-17T08:29:48.840Z,101868.50
2022-10-17T08:32:15.363Z,101879.69
2022-10-17T08:34:41.899Z,101876.88
2022-10-17T08:37:08.460Z,101894.81
2022-10-17T08:39:35.052Z,101902.34
2022-10-17T08:42:04.510Z,101919.53
2022-10-17T08:44:55.956Z,101935.81
2022-10-17T08:47:45.310Z,101954.53
2022-10-17T08:50:28.946Z,101949.41
2022-10-17T08:53:02.888Z,101961.28
2022-10-17T08:55:44.453Z,101962.50
2022-10-17T08:58:28.984Z,101953.00
2022-10-17T09:01:13.073Z,101928.28
2022-10-17T09:04:18.983Z,101907.94
2022-10-17T09:06:54.515Z,101898.78
2022-10-17T09:09:33.007Z,101908.38
2022-10-17T09:12:14.569Z,101908.41
2022-10-17T09:14:52.964Z,101900.44
2022-10-17T09:17:35.454Z,101908.38
2022-10-17T09:20:31.015Z,101907.16
2022-10-17T09:23:17.395Z,101921.50
2022-10-17T09:25:47.009Z,101919.47
2022-10-17T09:28:25.868Z,101940.31
2022-10-17T09:31:20.024Z,101935.06
2022-10-17T09:33:54.358Z,101941.09
2022-10-17T09:36:27.515Z,101948.22
2022-10-17T09:38:57.101Z,101969.78
2022-10-17T09:41:44.729Z,101970.88
2022-10-17T09:44:34.168Z,102001.25
2022-10-17T09:47:12.501Z,102002.38
2022-10-17T09:49:41.802Z,102003.19
2022-10-17T09:52:19.872Z,101998.03
2022-10-17T09:55:13.825Z,102008.41
2022-10-17T09:57:57.403Z,102018.31
2022-10-17T10:00:30.316Z,102019.56
2022-10-17T10:03:11.054Z,102020.66
2022-10-17T10:05:37.673Z,102031.03
2022-10-17T10:08:11.670Z,102043.91
2022-10-17T10:10:42.957Z,102032.31
2022-10-17T10:13:15.907Z,102047.19
2022-10-17T10:15:46.599Z,102040.72
2022-10-17T10:18:25.062Z,102053.47
2022-10-17T10:21:37.914Z,102063.06
2022-10-17T10:24:08.576Z,102053.22
2022-10-17T10:26:46.685Z,102055.53
2022-10-17T10:29:25.042Z,102062.03
2022-10-17T10:31:53.420Z,102050.00
2022-10-17T10:34:27.748Z,102067.97
2022-10-17T10:37:18.187Z,102063.19
2022-10-17T10:39:49.932Z,102079.09
2022-10-17T10:42:22.154Z,102075.47
2022-10-17T10:44:50.453Z,102079.88
2022-10-17T10:47:20.066Z,102088.69
2022-10-17T10:49:46.798Z,102095.78
2022-10-17T10:52:36.909Z,102095.38
2022-10-17T10:55:20.793Z,102091.78
2022-10-17T10:57:49.732Z,102095.84
2022-10-17T11:00:21.466Z,102098.16
2022-10-17T11:03:21.831Z,102104.94
2022-10-17T11:05:57.434Z,102097.00
2022-10-17T11:08:33.645Z,102101.00
2022-10-17T11:11:38.710Z,102109.72
2022-10-17T11:14:31.735Z,102107.72
2022-10-17T11:17:03.210Z,102105.75
2022-10-17T11:19:45.231Z,102112.66
2022-10-17T11:22:16.242Z,102118.97
2022-10-17T11:24:45.571Z,102113.41
2022-10-17T11:27:12.183Z,102105.53
2022-10-17T11:29:41.821Z,102097.56
2022-10-17T11:32:18.680Z,102105.59
2022-10-17T11:34:53.020Z,102112.03
2022-10-17T11:37:26.345Z,102109.72
2022-10-17T11:39:59.142Z,102114.50
2022-10-17T11:42:42.629Z,102117.31
2022-10-17T11:45:17.692Z,102118.53
2022-10-17T11:47:47.807Z,102131.44
2022-10-17T11:53:20.685Z,102119.38
2022-10-17T11:55:48.650Z,102120.63
2022-10-17T12:01:15.191Z,102122.84
2022-10-17T12:03:53.873Z,102116.97
2022-10-17T12:06:39.559Z,102101.31
2022-10-17T12:09:49.431Z,102108.97
2022-10-17T12:12:28.453Z,102114.19
2022-10-17T12:15:23.421Z,102122.28
2022-10-17T12:18:00.981Z,102119.34
2022-10-17T12:20:37.977Z,102120.91
2022-10-17T12:23:20.094Z,102124.63
2022-10-17T12:25:56.907Z,102126.19
2022-10-17T12:28:30.915Z,102132.28
2022-10-17T12:30:59.582Z,102145.78
2022-10-17T12:33:34.830Z,102149.81
2022-10-17T12:36:22.353Z,102163.06
2022-10-17T12:38:51.545Z,102154.25
2022-10-17T12:41:37.956Z,102169.91
2022-10-17T12:44:13.335Z,102167.00
2022-10-17T12:46:55.473Z,102167.84
2022-10-17T12:49:45.462Z,102186.25
2022-10-17T12:52:35.188Z,102189.09
2022-10-17T12:55:16.775Z,102188.63
2022-10-17T12:58:00.336Z,102183.91
2022-10-17T13:00:49.701Z,102190.31
2022-10-17T13:03:28.474Z,102191.50
2022-10-17T13:06:01.003Z,102185.47
2022-10-17T13:08:44.150Z,102194.66
2022-10-17T13:11:11.566Z,102207.88
2022-10-17T13:13:45.224Z,102192.22
2022-10-17T13:16:29.881Z,102203.03
2022-10-17T13:18:56.727Z,102201.03
2022-10-17T13:21:24.331Z,102213.81
2022-10-17T13:23:53.076Z,102215.34
2022-10-17T13:26:22.951Z,102219.78
2022-10-17T13:29:13.195Z,102213.44
2022-10-17T13:31:42.179Z,102204.59
2022-10-17T13:34:20.604Z,102217.81
2022-10-17T13:36:50.569Z,102216.59
2022-10-17T13:39:32.638Z,102226.19
2022-10-17T13:42:16.784Z,102222.63
2022-10-17T13:44:43.622Z,102216.25
2022-10-17T13:47:22.563Z,102211.81
2022-10-17T13:49:52.952Z,102213.44
2022-10-17T13:52:26.949Z,102218.63
2022-10-17T13:54:54.392Z,102211.09
2022-10-17T13:57:25.012Z,102208.69
2022-10-17T14:00:00.000Z,102213.88
2022-10-17T14:02:29.276Z,102211.09
2022-10-17T14:05:23.001Z,102205.56
2022-10-17T14:08:13.536Z,102190.38
2022-10-17T14:10:43.878Z,102193.19
2022-10-17T14:13:25.895Z,102182.78
2022-10-17T14:15:59.652Z,102189.19
2022-10-17T14:18:37.419Z,102185.16
2022-10-17T14:21:34.361Z,102183.56
2022-10-17T14:24:11.475Z,102185.16
2022-10-17T14:26:50.687Z,102210.41
2022-10-17T14:29:32.598Z,102202.81
2022-10-17T14:32:04.065Z,102200.81
2022-10-17T14:34:34.721Z,102209.16
2022-10-17T14:37:01.997Z,102212.00
2022-10-17T14:39:29.285Z,102208.00
2022-10-17T14:41:56.703Z,102217.97
2022-10-17T14:44:31.781Z,102227.59
2022-10-17T14:47:18.342Z,102217.22
2022-10-17T14:50:03.032Z,102232.03
2022-10-17T14:52:31.236Z,102239.19
2022-10-17T14:54:59.588Z,102241.16
2022-10-17T14:57:33.743Z,102251.63
2022-10-17T15:00:00.289Z,102241.22
2022-10-17T15:02:29.228Z,102255.97
2022-10-17T15:04:56.067Z,102263.59
2022-10-17T15:07:23.642Z,102261.97
2022-10-17T15:09:53.249Z,102266.41
2022-10-17T15:12:25.179Z,102279.56
2022-10-17T15:14:53.007Z,102265.94
2022-10-17T15:17:24.968Z,102273.94
2022-10-17T15:19:51.741Z,102273.97
2022-10-17T15:22:18.580Z,102266.75
2022-10-17T15:24:46.261Z,102264.75
2022-10-17T15:27:26.492Z,102273.97
2022-10-17T15:29:53.243Z,102267.97
2022-10-17T15:32:20.303Z,102285.91
2022-10-17T15:34:46.962Z,102287.91
2022-10-17T15:37:24.689Z,102301.47
2022-10-17T15:39:54.598Z,102296.66
2022-10-17T15:42:26.429Z,102311.06
2022-10-17T15:44:53.405Z,102304.59
2022-10-17T15:47:24.958Z,102311.00
2022-10-17T15:49:51.631Z,102307.00
2022-10-17T15:52:18.786Z,102308.16
2022-10-17T15:54:45.341Z,102309.00
2022-10-17T15:57:27.333Z,102327.69
2022-10-17T15:59:55.544Z,102310.53
2022-10-17T16:02:23.864Z,102306.88
2022-10-17T16:04:51.439Z,102320.44
2022-10-17T16:07:19.648Z,102321.63
2022-10-17T16:09:46.502Z,102321.22
2022-10-17T16:12:17.623Z,102322.41
2022-10-17T16:14:44.424Z,102324.81
2022-10-17T16:17:15.776Z,102316.91
2022-10-17T16:19:42.788Z,102320.88
2022-10-17T16:22:19.508Z,102332.94
2022-10-17T16:24:46.037Z,102328.97
2022-10-17T16:27:12.602Z,102338.56
2022-10-17T16:29:39.102Z,102318.06
2022-10-17T16:32:05.729Z,102341.66
2022-10-17T16:34:32.383Z,102338.41
2022-10-17T16:36:58.867Z,102348.44
2022-10-17T16:39:25.377Z,102350.25
2022-10-17T16:41:54.784Z,102353.06
2022-10-17T16:44:24.432Z,102365.56
2022-10-17T16:46:51.016Z,102368.66
2022-10-17T16:49:18.315Z,102358.22
2022-10-17T16:51:44.922Z,102356.94
2022-10-17T16:54:11.521Z,102377.66
2022-10-17T16:56:38.059Z,102375.84
2022-10-17T16:59:04.589Z,102384.66
2022-10-17T17:01:31.131Z,102379.47
2022-10-17T17:03:57.706Z,102385.41
2022-10-17T17:06:26.835Z,102395.75
2022-10-17T17:08:54.575Z,102394.84
2022-10-17T17:11:22.802Z,102414.44
2022-10-17T17:13:49.424Z,102410.69
2022-10-17T17:16:19.121Z,102406.22
2022-10-17T17:18:46.198Z,102421.06
2022-10-17T17:21:13.270Z,102413.34
2022-10-17T17:23:41.641Z,102425.75
2022-10-17T17:26:20.028Z,102423.31
2022-10-17T17:28:47.642Z,102430.44
2022-10-17T17:31:17.715Z,102428.13
2022-10-17T17:33:46.705Z,102431.09
2022-10-17T17:36:17.207Z,102437.91
2022-10-17T17:38:44.556Z,102435.94
2022-10-17T17:41:13.698Z,102441.47
2022-10-17T17:43:41.397Z,102443.13
2022-10-17T17:46:08.261Z,102448.63
2022-10-17T17:48:38.376Z,102446.66
2022-10-17T17:51:06.536Z,102437.47
2022-10-17T17:53:34.058Z,102452.13
2022-10-17T17:56:05.099Z,102445.28
2022-10-17T17:58:32.260Z,102444.72
2022-10-17T18:00:59.133Z,102458.38
2022-10-17T18:03:26.540Z,102454.34
2022-10-17T18:05:53.565Z,102459.97
2022-10-17T18:08:20.110Z,102460.41
2022-10-17T18:10:54.378Z,102457.19
2022-10-17T18:13:20.953Z,102473.16
2022-10-17T18:15:48.833Z,102466.84
2022-10-17T18:18:15.405Z,102476.50
2022-10-17T18:20:42.952Z,102474.38
2022-10-17T18:23:10.633Z,102474.72
2022-10-17T18:25:37.460Z,102475.88
2022-10-17T18:28:04.634Z,102473.13
2022-10-17T18:30:34.454Z,102479.91
2022-10-17T18:33:01.210Z,102487.53
2022-10-17T18:35:27.736Z,102485.44
2022-10-17T18:37:56.757Z,102485.09
2022-10-17T18:40:23.285Z,102475.97
2022-10-17T18:42:49.862Z,102487.56
2022-10-17T18:45:17.465Z,102487.66
2022-10-17T18:47:47.170Z,102484.53
2022-10-17T18:50:14.726Z,102485.97
2022-10-17T18:52:41.311Z,102490.91
2022-10-17T18:55:08.432Z,102491.38
2022-10-17T18:57:34.931Z,102492.19
2022-10-17T19:00:01.674Z,102500.38
2022-10-17T19:02:28.277Z,102499.94
2022-10-17T19:04:54.848Z,102499.63
2022-10-17T19:07:21.441Z,102497.63
2022-10-17T19:09:48.917Z,102506.50
2022-10-17T19:12:15.855Z,102501.88
2022-10-17T19:14:42.343Z,102506.97
2022-10-17T19:17:09.034Z,102506.03
2022-10-17T19:19:36.082Z,102519.81
2022-10-17T19:22:03.522Z,102515.84
2022-10-17T19:24:30.249Z,102510.16
2022-10-17T19:26:59.343Z,102518.56
2022-10-17T19:29:31.820Z,102516.28
2022-10-17T19:31:58.760Z,102513.56
2022-10-17T19:34:25.381Z,102515.34
2022-10-17T19:36:51.852Z,102518.31
2022-10-17T19:39:20.215Z,102521.56
2022-10-17T19:41:48.321Z,102523.91
2022-10-17T19:44:15.428Z,102540.44
2022-10-17T19:46:44.399Z,102545.13
2022-10-17T19:49:11.729Z,102540.97
2022-10-17T19:51:38.727Z,102538.84
2022-10-17T19:54:05.382Z,102549.22
2022-10-17T19:56:33.677Z,102544.44
2022-10-17T19:59:00.413Z,102547.28
2022-10-17T20:01:29.774Z,102548.66
2022-10-17T20:03:56.904Z,102543.75
2022-10-17T20:06:23.674Z,102546.28
2022-10-17T20:08:51.151Z,102555.38
2022-10-17T20:11:22.698Z,102552.88
2022-10-17T20:13:50.261Z,102556.84
2022-10-17T20:16:22.801Z,102555.66
2022-10-17T20:18:50.303Z,102556.91
2022-10-17T20:21:20.101Z,102553.72
2022-10-17T20:23:47.920Z,102548.16
2022-10-17T20:26:26.341Z,102559.47
2022-10-17T20:29:05.587Z,102567.72
2022-10-17T20:31:32.101Z,102556.63
2022-10-17T20:33:59.642Z,102563.00
2022-10-17T20:36:26.712Z,102565.44
2022-10-17T20:38:55.511Z,102564.09
2022-10-17T20:41:22.902Z,102557.31
2022-10-17T20:43:54.062Z,102566.94
2022-10-17T20:46:35.557Z,102572.06
2022-10-17T20:49:04.435Z,102574.16
2022-10-17T20:51:30.968Z,102581.25
2022-10-17T20:56:31.181Z,102568.06
2022-10-17T20:59:00.836Z,102562.22
2022-10-17T21:01:28.533Z,102559.69
2022-10-17T21:03:58.860Z,102561.53
2022-10-17T21:06:27.395Z,102561.91
2022-10-17T21:08:55.764Z,102554.13
2022-10-17T21:11:24.318Z,102552.53
2022-10-17T21:14:02.251Z,102568.53
2022-10-17T21:16:30.439Z,102561.97
2022-10-17T21:18:57.856Z,102573.41
2022-10-17T21:21:29.568Z,102581.53
2022-10-17T21:23:58.741Z,102576.81
2022-10-17T21:26:25.279Z,102584.00
2022-10-17T21:28:51.887Z,102590.59
2022-10-17T21:31:21.171Z,102590.53
2022-10-17T21:33:53.737Z,102586.25
2022-10-17T21:36:21.072Z,102602.78
2022-10-17T21:38:49.264Z,102600.47
2022-10-17T21:41:20.158Z,102598.31
2022-10-17T21:43:47.937Z,102602.22
2022-10-17T21:46:17.291Z,102607.88
2022-10-17T21:48:45.180Z,102606.91
2022-10-17T21:51:15.082Z,102618.06
2022-10-17T21:53:42.061Z,102605.16
2022-10-17T21:56:17.468Z,102615.94
2022-10-17T21:58:44.725Z,102610.81
2022-10-17T22:01:21.835Z,102604.44
2022-10-17T22:03:50.829Z,102617.03
2022-10-17T22:09:14.388Z,102618.28
2022-10-17T22:11:41.484Z,102611.00
2022-10-17T22:14:12.993Z,102625.53
2022-10-17T22:16:40.537Z,102625.34
2022-10-17T22:19:08.666Z,102636.41
2022-10-17T22:21:36.889Z,102627.06
2022-10-17T22:24:07.504Z,102626.34
2022-10-17T22:26:35.856Z,102635.97
2022-10-17T22:29:03.775Z,102635.81
2022-10-17T22:31:30.312Z,102635.09
2022-10-17T22:33:56.871Z,102642.28
2022-10-17T22:36:23.620Z,102632.72
2022-10-17T22:38:50.470Z,102643.16
2022-10-17T22:41:17.301Z,102634.34
2022-10-17T22:43:43.893Z,102635.22
2022-10-17T22:46:13.042Z,102638.53
2022-10-17T22:48:40.204Z,102630.19
2022-10-17T22:51:06.885Z,102629.81
2022-10-17T22:53:35.142Z,102636.84
2022-10-17T22:56:08.011Z,102634.63
2022-10-17T22:58:36.106Z,102637.75
2022-10-17T23:01:04.241Z,102642.41
2022-10-17T23:03:32.240Z,102644.91
2022-10-17T23:05:59.199Z,102651.44
2022-10-17T23:08:26.592Z,102657.38
2022-10-17T23:10:53.325Z,102653.41
2022-10-17T23:13:22.005Z,102644.03
2022-10-17T23:15:53.087Z,102646.00
2022-10-17T23:18:20.992Z,102650.03
2022-10-17T23:20:47.938Z,102646.44
2022-10-17T23:23:14.904Z,102641.19
2022-10-17T23:25:41.653Z,102643.31
2022-10-17T23:28:08.783Z,102634.34
2022-10-17T23:30:36.985Z,102628.78
2022-10-17T23:33:04.325Z,102632.00
2022-10-17T23:35:31.642Z,102627.16
2022-10-17T23:37:58.497Z,102631.47
2022-10-17T23:40:25.125Z,102630.66
2022-10-17T23:42:51.579Z,102627.66
2022-10-17T23:45:18.356Z,102626.59
2022-10-17T23:47:44.894Z,102631.69
2022-10-17T23:50:11.489Z,102640.06
2022-10-17T23:52:38.033Z,102637.88
2022-10-17T23:55:05.090Z,102648.09
2022-10-17T23:57:32.076Z,102641.44
2022-10-17T23:59:58.904Z,102639.78
